<?xml version="1.0" encoding="UTF-8"?>
<gpx
  version="1.0"
  creator="GPSBabel - http://www.gpsbabel.org"
  xmlns:xsi="http://www.w3.org/2001/XMLSchema-instance"
  xmlns="http://www.topografix.com/GPX/1/0"
  xsi:schemaLocation="http://www.topografix.com/GPX/1/0 http://www.topografix.com/GPX/1/0/gpx.xsd">
<time>2012-07-08T18:50:43Z</time>
<bounds minlat="57.848008918" minlon="56.234906120" maxlat="57.908602366" maxlon="56.282664109"/>
<trk>
  <name>
      2012_07_08__08_20(2)
    </name>
<trkseg>
<trkpt lat="57.902522301" lon="56.237339722">
  <ele>106.360001</ele>
  <time>2012-07-08T08:58:59Z</time>
</trkpt>
<trkpt lat="57.902558260" lon="56.237662258">
  <ele>105.879997</ele>
  <time>2012-07-08T08:59:04Z</time>
</trkpt>
<trkpt lat="57.902652053" lon="56.237914301">
  <ele>113.089996</ele>
  <time>2012-07-08T08:59:08Z</time>
</trkpt>
<trkpt lat="57.902898146" lon="56.238184534">
  <ele>129.919998</ele>
  <time>2012-07-08T08:59:16Z</time>
</trkpt>
<trkpt lat="57.903121859" lon="56.238353513">
  <ele>144.339996</ele>
  <time>2012-07-08T08:59:22Z</time>
</trkpt>
<trkpt lat="57.903354792" lon="56.238661464">
  <ele>163.559998</ele>
  <time>2012-07-08T08:59:29Z</time>
</trkpt>
<trkpt lat="57.903381446" lon="56.238709912">
  <ele>166.929993</ele>
  <time>2012-07-08T08:59:30Z</time>
</trkpt>
<trkpt lat="57.903569704" lon="56.238969415">
  <ele>195.770004</ele>
  <time>2012-07-08T08:59:38Z</time>
</trkpt>
<trkpt lat="57.903669281" lon="56.239092546">
  <ele>205.860001</ele>
  <time>2012-07-08T08:59:42Z</time>
</trkpt>
<trkpt lat="57.903865585" lon="56.239157002">
  <ele>211.630005</ele>
  <time>2012-07-08T08:59:47Z</time>
</trkpt>
<trkpt lat="57.903970862" lon="56.239223639">
  <ele>214.990005</ele>
  <time>2012-07-08T08:59:50Z</time>
</trkpt>
<trkpt lat="57.904163646" lon="56.239421619">
  <ele>229.410004</ele>
  <time>2012-07-08T08:59:55Z</time>
</trkpt>
<trkpt lat="57.904321645" lon="56.239641728">
  <ele>253.929993</ele>
  <time>2012-07-08T09:00:00Z</time>
</trkpt>
<trkpt lat="57.904495318" lon="56.239646589">
  <ele>273.630005</ele>
  <time>2012-07-08T09:00:04Z</time>
</trkpt>
<trkpt lat="57.904571844" lon="56.239604093">
  <ele>283.730011</ele>
  <time>2012-07-08T09:00:06Z</time>
</trkpt>
<trkpt lat="57.904813830" lon="56.239888156">
  <ele>316.890015</ele>
  <time>2012-07-08T09:00:13Z</time>
</trkpt>
<trkpt lat="57.905205013" lon="56.240411270">
  <ele>338.040009</ele>
  <time>2012-07-08T09:00:23Z</time>
</trkpt>
<trkpt lat="57.905421769" lon="56.240881663">
  <ele>342.369995</ele>
  <time>2012-07-08T09:00:30Z</time>
</trkpt>
<trkpt lat="57.905591922" lon="56.241257256">
  <ele>344.290009</ele>
  <time>2012-07-08T09:00:36Z</time>
</trkpt>
<trkpt lat="57.905667694" lon="56.241368484">
  <ele>344.290009</ele>
  <time>2012-07-08T09:00:38Z</time>
</trkpt>
<trkpt lat="57.905755118" lon="56.241557747">
  <ele>344.290009</ele>
  <time>2012-07-08T09:00:41Z</time>
</trkpt>
<trkpt lat="57.906013532" lon="56.241958402">
  <ele>340.440002</ele>
  <time>2012-07-08T09:00:48Z</time>
</trkpt>
<trkpt lat="57.906107074" lon="56.242048256">
  <ele>341.410004</ele>
  <time>2012-07-08T09:00:50Z</time>
</trkpt>
<trkpt lat="57.906360207" lon="56.242525019">
  <ele>354.380005</ele>
  <time>2012-07-08T09:00:57Z</time>
</trkpt>
<trkpt lat="57.906401949" lon="56.242588721">
  <ele>356.309998</ele>
  <time>2012-07-08T09:00:58Z</time>
</trkpt>
<trkpt lat="57.906507812" lon="56.242700368">
  <ele>361.109985</ele>
  <time>2012-07-08T09:01:00Z</time>
</trkpt>
<trkpt lat="57.906616609" lon="56.242796089">
  <ele>367.359985</ele>
  <time>2012-07-08T09:01:02Z</time>
</trkpt>
<trkpt lat="57.906723563" lon="56.242920309">
  <ele>374.570007</ele>
  <time>2012-07-08T09:01:04Z</time>
</trkpt>
<trkpt lat="57.906890195" lon="56.243071770">
  <ele>385.630005</ele>
  <time>2012-07-08T09:01:07Z</time>
</trkpt>
<trkpt lat="57.906995053" lon="56.243172856">
  <ele>391.869995</ele>
  <time>2012-07-08T09:01:09Z</time>
</trkpt>
<trkpt lat="57.907233769" lon="56.243460774">
  <ele>402.929993</ele>
  <time>2012-07-08T09:01:13Z</time>
</trkpt>
<trkpt lat="57.907491429" lon="56.243891353">
  <ele>417.350006</ele>
  <time>2012-07-08T09:01:18Z</time>
</trkpt>
<trkpt lat="57.907648003" lon="56.244074833">
  <ele>425.040009</ele>
  <time>2012-07-08T09:01:21Z</time>
</trkpt>
<trkpt lat="57.907976406" lon="56.244133003">
  <ele>441.380005</ele>
  <time>2012-07-08T09:01:27Z</time>
</trkpt>
<trkpt lat="57.908299444" lon="56.244218498">
  <ele>451.959991</ele>
  <time>2012-07-08T09:01:33Z</time>
</trkpt>
<trkpt lat="57.908498850" lon="56.244364344">
  <ele>446.190002</ele>
  <time>2012-07-08T09:01:39Z</time>
</trkpt>
<trkpt lat="57.908602366" lon="56.244728454">
  <ele>435.130005</ele>
  <time>2012-07-08T09:01:45Z</time>
</trkpt>
<trkpt lat="57.908587782" lon="56.244977983">
  <ele>428.890015</ele>
  <time>2012-07-08T09:01:50Z</time>
</trkpt>
<trkpt lat="57.908597421" lon="56.245008409">
  <ele>426.480011</ele>
  <time>2012-07-08T09:01:52Z</time>
</trkpt>
<trkpt lat="57.908560792" lon="56.244862732">
  <ele>424.079987</ele>
  <time>2012-07-08T09:01:55Z</time>
</trkpt>
<trkpt lat="57.908482170" lon="56.244195700">
  <ele>414.950012</ele>
  <time>2012-07-08T09:02:00Z</time>
</trkpt>
<trkpt lat="57.908465071" lon="56.243650708">
  <ele>409.179993</ele>
  <time>2012-07-08T09:02:04Z</time>
</trkpt>
<trkpt lat="57.908289637" lon="56.242766669">
  <ele>406.290009</ele>
  <time>2012-07-08T09:02:10Z</time>
</trkpt>
<trkpt lat="57.908014543" lon="56.242165100">
  <ele>401.489990</ele>
  <time>2012-07-08T09:02:14Z</time>
</trkpt>
<trkpt lat="57.907732157" lon="56.241751872">
  <ele>396.679993</ele>
  <time>2012-07-08T09:02:17Z</time>
</trkpt>
<trkpt lat="57.907224465" lon="56.241260692">
  <ele>395.239990</ele>
  <time>2012-07-08T09:02:21Z</time>
</trkpt>
<trkpt lat="57.906497754" lon="56.240663901">
  <ele>395.720001</ele>
  <time>2012-07-08T09:02:27Z</time>
</trkpt>
<trkpt lat="57.906211764" lon="56.239942638">
  <ele>395.239990</ele>
  <time>2012-07-08T09:02:33Z</time>
</trkpt>
<trkpt lat="57.906216960" lon="56.239915900">
  <ele>394.760010</ele>
  <time>2012-07-08T09:02:34Z</time>
</trkpt>
<trkpt lat="57.906214949" lon="56.240142379">
  <ele>393.799988</ele>
  <time>2012-07-08T09:02:38Z</time>
</trkpt>
<trkpt lat="57.905970868" lon="56.240779823">
  <ele>392.839996</ele>
  <time>2012-07-08T09:02:43Z</time>
</trkpt>
<trkpt lat="57.905160757" lon="56.241294136">
  <ele>391.390015</ele>
  <time>2012-07-08T09:02:49Z</time>
</trkpt>
<trkpt lat="57.904649796" lon="56.240780996">
  <ele>388.510010</ele>
  <time>2012-07-08T09:02:54Z</time>
</trkpt>
<trkpt lat="57.904625321" lon="56.240636408">
  <ele>387.549988</ele>
  <time>2012-07-08T09:02:55Z</time>
</trkpt>
<trkpt lat="57.904556422" lon="56.240227120">
  <ele>386.109985</ele>
  <time>2012-07-08T09:03:01Z</time>
</trkpt>
<trkpt lat="57.904501939" lon="56.239832416">
  <ele>383.700012</ele>
  <time>2012-07-08T09:03:09Z</time>
</trkpt>
<trkpt lat="57.904376211" lon="56.239320785">
  <ele>382.260010</ele>
  <time>2012-07-08T09:03:14Z</time>
</trkpt>
<trkpt lat="57.904182840" lon="56.238771183">
  <ele>380.820007</ele>
  <time>2012-07-08T09:03:19Z</time>
</trkpt>
<trkpt lat="57.904009083" lon="56.238239519">
  <ele>381.299988</ele>
  <time>2012-07-08T09:03:24Z</time>
</trkpt>
<trkpt lat="57.903983016" lon="56.238020249">
  <ele>382.260010</ele>
  <time>2012-07-08T09:03:28Z</time>
</trkpt>
<trkpt lat="57.903953847" lon="56.238604551">
  <ele>382.739990</ele>
  <time>2012-07-08T09:03:37Z</time>
</trkpt>
<trkpt lat="57.903428720" lon="56.239268063">
  <ele>380.820007</ele>
  <time>2012-07-08T09:03:42Z</time>
</trkpt>
<trkpt lat="57.902892027" lon="56.239114171">
  <ele>379.859985</ele>
  <time>2012-07-08T09:03:46Z</time>
</trkpt>
<trkpt lat="57.902723802" lon="56.238664985">
  <ele>379.859985</ele>
  <time>2012-07-08T09:03:49Z</time>
</trkpt>
<trkpt lat="57.902646354" lon="56.238403637">
  <ele>381.299988</ele>
  <time>2012-07-08T09:03:57Z</time>
</trkpt>
<trkpt lat="57.902721455" lon="56.238778727">
  <ele>376.970001</ele>
  <time>2012-07-08T09:04:07Z</time>
</trkpt>
<trkpt lat="57.902731178" lon="56.238808986">
  <ele>376.010010</ele>
  <time>2012-07-08T09:04:09Z</time>
</trkpt>
<trkpt lat="57.902710559" lon="56.238371450">
  <ele>375.049988</ele>
  <time>2012-07-08T09:04:14Z</time>
</trkpt>
<trkpt lat="57.902470250" lon="56.237914553">
  <ele>374.089996</ele>
  <time>2012-07-08T09:04:18Z</time>
</trkpt>
<trkpt lat="57.901719315" lon="56.237641638">
  <ele>368.799988</ele>
  <time>2012-07-08T09:04:24Z</time>
</trkpt>
<trkpt lat="57.901115483" lon="56.238353346">
  <ele>361.589996</ele>
  <time>2012-07-08T09:04:30Z</time>
</trkpt>
<trkpt lat="57.901124284" lon="56.238650903">
  <ele>354.380005</ele>
  <time>2012-07-08T09:04:34Z</time>
</trkpt>
<trkpt lat="57.901120763" lon="56.238650987">
  <ele>351.500000</ele>
  <time>2012-07-08T09:04:37Z</time>
</trkpt>
<trkpt lat="57.901109364" lon="56.238491647">
  <ele>344.769989</ele>
  <time>2012-07-08T09:04:43Z</time>
</trkpt>
<trkpt lat="57.901097797" lon="56.238494832">
  <ele>343.809998</ele>
  <time>2012-07-08T09:04:44Z</time>
</trkpt>
<trkpt lat="57.901093690" lon="56.238139356">
  <ele>334.200012</ele>
  <time>2012-07-08T09:04:51Z</time>
</trkpt>
<trkpt lat="57.901126966" lon="56.237883121">
  <ele>329.390015</ele>
  <time>2012-07-08T09:04:54Z</time>
</trkpt>
<trkpt lat="57.901159404" lon="56.237557903">
  <ele>328.429993</ele>
  <time>2012-07-08T09:04:57Z</time>
</trkpt>
<trkpt lat="57.901129983" lon="56.236829264">
  <ele>343.809998</ele>
  <time>2012-07-08T09:05:06Z</time>
</trkpt>
<trkpt lat="57.901111208" lon="56.236749385">
  <ele>348.130005</ele>
  <time>2012-07-08T09:05:08Z</time>
</trkpt>
<trkpt lat="57.900937200" lon="56.236166088">
  <ele>357.750000</ele>
  <time>2012-07-08T09:05:15Z</time>
</trkpt>
<trkpt lat="57.900742739" lon="56.236069277">
  <ele>362.549988</ele>
  <time>2012-07-08T09:05:17Z</time>
</trkpt>
<trkpt lat="57.900390029" lon="56.236087717">
  <ele>371.690002</ele>
  <time>2012-07-08T09:05:20Z</time>
</trkpt>
<trkpt lat="57.899912009" lon="56.236791713">
  <ele>387.070007</ele>
  <time>2012-07-08T09:05:26Z</time>
</trkpt>
<trkpt lat="57.899915278" lon="56.237034453">
  <ele>397.640015</ele>
  <time>2012-07-08T09:05:31Z</time>
</trkpt>
<trkpt lat="57.900004210" lon="56.237213490">
  <ele>404.850006</ele>
  <time>2012-07-08T09:05:38Z</time>
</trkpt>
<trkpt lat="57.900187019" lon="56.237418680">
  <ele>413.019989</ele>
  <time>2012-07-08T09:05:45Z</time>
</trkpt>
<trkpt lat="57.900239238" lon="56.237410465">
  <ele>418.790009</ele>
  <time>2012-07-08T09:05:49Z</time>
</trkpt>
<trkpt lat="57.900408218" lon="56.237456649">
  <ele>430.809998</ele>
  <time>2012-07-08T09:05:58Z</time>
</trkpt>
<trkpt lat="57.900549369" lon="56.237532757">
  <ele>440.420013</ele>
  <time>2012-07-08T09:06:04Z</time>
</trkpt>
<trkpt lat="57.900640396" lon="56.237460840">
  <ele>444.750000</ele>
  <time>2012-07-08T09:06:08Z</time>
</trkpt>
<trkpt lat="57.900947258" lon="56.237259843">
  <ele>458.209991</ele>
  <time>2012-07-08T09:06:17Z</time>
</trkpt>
<trkpt lat="57.901283707" lon="56.237142496">
  <ele>475.989990</ele>
  <time>2012-07-08T09:06:25Z</time>
</trkpt>
<trkpt lat="57.901447406" lon="56.236488372">
  <ele>491.850006</ele>
  <time>2012-07-08T09:06:32Z</time>
</trkpt>
<trkpt lat="57.901010541" lon="56.235724613">
  <ele>496.660004</ele>
  <time>2012-07-08T09:06:37Z</time>
</trkpt>
<trkpt lat="57.900312496" lon="56.235740874">
  <ele>505.790009</ele>
  <time>2012-07-08T09:06:42Z</time>
</trkpt>
<trkpt lat="57.899973784" lon="56.236455850">
  <ele>521.650024</ele>
  <time>2012-07-08T09:06:47Z</time>
</trkpt>
<trkpt lat="57.900063805" lon="56.236827336">
  <ele>534.630005</ele>
  <time>2012-07-08T09:06:51Z</time>
</trkpt>
<trkpt lat="57.900145445" lon="56.236844268">
  <ele>541.840027</ele>
  <time>2012-07-08T09:06:54Z</time>
</trkpt>
<trkpt lat="57.900472088" lon="56.236541765">
  <ele>560.109985</ele>
  <time>2012-07-08T09:07:03Z</time>
</trkpt>
<trkpt lat="57.900728742" lon="56.236419138">
  <ele>567.799988</ele>
  <time>2012-07-08T09:07:11Z</time>
</trkpt>
<trkpt lat="57.900932841" lon="56.236504130">
  <ele>577.890015</ele>
  <time>2012-07-08T09:07:17Z</time>
</trkpt>
<trkpt lat="57.901023533" lon="56.236543777">
  <ele>575.010010</ele>
  <time>2012-07-08T09:07:20Z</time>
</trkpt>
<trkpt lat="57.901119255" lon="56.236547632">
  <ele>574.530029</ele>
  <time>2012-07-08T09:07:23Z</time>
</trkpt>
<trkpt lat="57.901161835" lon="56.236418886">
  <ele>575.489990</ele>
  <time>2012-07-08T09:07:27Z</time>
</trkpt>
<trkpt lat="57.901249174" lon="56.235911278">
  <ele>568.280029</ele>
  <time>2012-07-08T09:07:36Z</time>
</trkpt>
<trkpt lat="57.901226459" lon="56.235818323">
  <ele>566.830017</ele>
  <time>2012-07-08T09:07:37Z</time>
</trkpt>
<trkpt lat="57.900741985" lon="56.235010475">
  <ele>553.859985</ele>
  <time>2012-07-08T09:07:44Z</time>
</trkpt>
<trkpt lat="57.900516093" lon="56.234906120">
  <ele>552.409973</ele>
  <time>2012-07-08T09:07:46Z</time>
</trkpt>
<trkpt lat="57.899809582" lon="56.235208456">
  <ele>547.609985</ele>
  <time>2012-07-08T09:07:51Z</time>
</trkpt>
<trkpt lat="57.899446646" lon="56.235776078">
  <ele>549.530029</ele>
  <time>2012-07-08T09:07:55Z</time>
</trkpt>
<trkpt lat="57.899227291" lon="56.236709235">
  <ele>549.530029</ele>
  <time>2012-07-08T09:08:00Z</time>
</trkpt>
<trkpt lat="57.899365509" lon="56.237005452">
  <ele>553.380005</ele>
  <time>2012-07-08T09:08:05Z</time>
</trkpt>
<trkpt lat="57.899386045" lon="56.236965219">
  <ele>555.299988</ele>
  <time>2012-07-08T09:08:06Z</time>
</trkpt>
<trkpt lat="57.899505990" lon="56.236679396">
  <ele>557.219971</ele>
  <time>2012-07-08T09:08:13Z</time>
</trkpt>
<trkpt lat="57.899529124" lon="56.236423748">
  <ele>554.820007</ele>
  <time>2012-07-08T09:08:17Z</time>
</trkpt>
<trkpt lat="57.899262411" lon="56.235793931">
  <ele>546.169983</ele>
  <time>2012-07-08T09:08:23Z</time>
</trkpt>
<trkpt lat="57.898655478" lon="56.235443149">
  <ele>538.479980</ele>
  <time>2012-07-08T09:08:28Z</time>
</trkpt>
<trkpt lat="57.898274437" lon="56.235404257">
  <ele>534.630005</ele>
  <time>2012-07-08T09:08:31Z</time>
</trkpt>
<trkpt lat="57.897716705" lon="56.235675076">
  <ele>529.820007</ele>
  <time>2012-07-08T09:08:35Z</time>
</trkpt>
<trkpt lat="57.897266261" lon="56.236161981">
  <ele>529.340027</ele>
  <time>2012-07-08T09:08:39Z</time>
</trkpt>
<trkpt lat="57.896840963" lon="56.237018947">
  <ele>532.710022</ele>
  <time>2012-07-08T09:08:44Z</time>
</trkpt>
<trkpt lat="57.896676008" lon="56.237605344">
  <ele>543.280029</ele>
  <time>2012-07-08T09:08:48Z</time>
</trkpt>
<trkpt lat="57.896559751" lon="56.238418389">
  <ele>553.859985</ele>
  <time>2012-07-08T09:08:54Z</time>
</trkpt>
<trkpt lat="57.896614484" lon="56.238914514">
  <ele>553.859985</ele>
  <time>2012-07-08T09:09:01Z</time>
</trkpt>
<trkpt lat="57.896628818" lon="56.238939827">
  <ele>554.340027</ele>
  <time>2012-07-08T09:09:02Z</time>
</trkpt>
<trkpt lat="57.896645917" lon="56.238630870">
  <ele>557.700012</ele>
  <time>2012-07-08T09:09:08Z</time>
</trkpt>
<trkpt lat="57.896587076" lon="56.238483936">
  <ele>557.219971</ele>
  <time>2012-07-08T09:09:10Z</time>
</trkpt>
<trkpt lat="57.896186337" lon="56.238090824">
  <ele>552.900024</ele>
  <time>2012-07-08T09:09:15Z</time>
</trkpt>
<trkpt lat="57.895963043" lon="56.238058722">
  <ele>552.900024</ele>
  <time>2012-07-08T09:09:17Z</time>
</trkpt>
<trkpt lat="57.895468762" lon="56.238403972">
  <ele>555.299988</ele>
  <time>2012-07-08T09:09:21Z</time>
</trkpt>
<trkpt lat="57.895151172" lon="56.238803119">
  <ele>557.700012</ele>
  <time>2012-07-08T09:09:24Z</time>
</trkpt>
<trkpt lat="57.894788235" lon="56.239485573">
  <ele>561.070007</ele>
  <time>2012-07-08T09:09:28Z</time>
</trkpt>
<trkpt lat="57.894708188" lon="56.239728816">
  <ele>563.950012</ele>
  <time>2012-07-08T09:09:30Z</time>
</trkpt>
<trkpt lat="57.894697878" lon="56.240269365">
  <ele>569.239990</ele>
  <time>2012-07-08T09:09:36Z</time>
</trkpt>
<trkpt lat="57.894697543" lon="56.240269029">
  <ele>569.719971</ele>
  <time>2012-07-08T09:09:37Z</time>
</trkpt>
<trkpt lat="57.894707350" lon="56.240185965">
  <ele>575.489990</ele>
  <time>2012-07-08T09:09:41Z</time>
</trkpt>
<trkpt lat="57.894703914" lon="56.240114970">
  <ele>578.369995</ele>
  <time>2012-07-08T09:09:43Z</time>
</trkpt>
<trkpt lat="57.894791420" lon="56.239661677">
  <ele>573.080017</ele>
  <time>2012-07-08T09:09:52Z</time>
</trkpt>
<trkpt lat="57.894483386" lon="56.239216849">
  <ele>571.159973</ele>
  <time>2012-07-08T09:09:57Z</time>
</trkpt>
<trkpt lat="57.894305354" lon="56.239047954">
  <ele>567.320007</ele>
  <time>2012-07-08T09:09:59Z</time>
</trkpt>
<trkpt lat="57.893692637" lon="56.238793228">
  <ele>560.109985</ele>
  <time>2012-07-08T09:10:04Z</time>
</trkpt>
<trkpt lat="57.893133061" lon="56.238863301">
  <ele>556.739990</ele>
  <time>2012-07-08T09:10:08Z</time>
</trkpt>
<trkpt lat="57.892421018" lon="56.239468725">
  <ele>560.590027</ele>
  <time>2012-07-08T09:10:14Z</time>
</trkpt>
<trkpt lat="57.891765302" lon="56.240925668">
  <ele>578.369995</ele>
  <time>2012-07-08T09:10:24Z</time>
</trkpt>
<trkpt lat="57.891717861" lon="56.241144855">
  <ele>587.020020</ele>
  <time>2012-07-08T09:10:29Z</time>
</trkpt>
<trkpt lat="57.891568914" lon="56.240774961">
  <ele>595.190002</ele>
  <time>2012-07-08T09:10:33Z</time>
</trkpt>
<trkpt lat="57.890933398" lon="56.240283614">
  <ele>602.880005</ele>
  <time>2012-07-08T09:10:39Z</time>
</trkpt>
<trkpt lat="57.890432915" lon="56.240863558">
  <ele>608.650024</ele>
  <time>2012-07-08T09:10:44Z</time>
</trkpt>
<trkpt lat="57.890228899" lon="56.241621450">
  <ele>618.750000</ele>
  <time>2012-07-08T09:10:50Z</time>
</trkpt>
<trkpt lat="57.890230911" lon="56.241689008">
  <ele>620.669983</ele>
  <time>2012-07-08T09:10:51Z</time>
</trkpt>
<trkpt lat="57.890212387" lon="56.242209775">
  <ele>628.359985</ele>
  <time>2012-07-08T09:10:57Z</time>
</trkpt>
<trkpt lat="57.890208866" lon="56.242871275">
  <ele>633.169983</ele>
  <time>2012-07-08T09:11:04Z</time>
</trkpt>
<trkpt lat="57.890235521" lon="56.243032208">
  <ele>631.239990</ele>
  <time>2012-07-08T09:11:07Z</time>
</trkpt>
<trkpt lat="57.890202999" lon="56.242908323">
  <ele>629.799988</ele>
  <time>2012-07-08T09:11:10Z</time>
</trkpt>
<trkpt lat="57.889882643" lon="56.242311783">
  <ele>627.400024</ele>
  <time>2012-07-08T09:11:15Z</time>
</trkpt>
<trkpt lat="57.889675945" lon="56.242082203">
  <ele>626.440002</ele>
  <time>2012-07-08T09:11:17Z</time>
</trkpt>
<trkpt lat="57.889130702" lon="56.241838038">
  <ele>624.989990</ele>
  <time>2012-07-08T09:11:21Z</time>
</trkpt>
<trkpt lat="57.888687803" lon="56.241852874">
  <ele>622.590027</ele>
  <time>2012-07-08T09:11:24Z</time>
</trkpt>
<trkpt lat="57.887889678" lon="56.242518900">
  <ele>624.510010</ele>
  <time>2012-07-08T09:11:30Z</time>
</trkpt>
<trkpt lat="57.887197500" lon="56.243381314">
  <ele>625.469971</ele>
  <time>2012-07-08T09:11:36Z</time>
</trkpt>
<trkpt lat="57.886958281" lon="56.243969724">
  <ele>626.919983</ele>
  <time>2012-07-08T09:11:40Z</time>
</trkpt>
<trkpt lat="57.886922909" lon="56.244128142">
  <ele>627.880005</ele>
  <time>2012-07-08T09:11:41Z</time>
</trkpt>
<trkpt lat="57.886899859" lon="56.244265772">
  <ele>628.359985</ele>
  <time>2012-07-08T09:11:42Z</time>
</trkpt>
<trkpt lat="57.886885190" lon="56.244381107">
  <ele>628.840027</ele>
  <time>2012-07-08T09:11:43Z</time>
</trkpt>
<trkpt lat="57.886878233" lon="56.244481355">
  <ele>629.320007</ele>
  <time>2012-07-08T09:11:44Z</time>
</trkpt>
<trkpt lat="57.886877060" lon="56.244564420">
  <ele>629.320007</ele>
  <time>2012-07-08T09:11:45Z</time>
</trkpt>
<trkpt lat="57.886885190" lon="56.244621249">
  <ele>629.799988</ele>
  <time>2012-07-08T09:11:46Z</time>
</trkpt>
<trkpt lat="57.886922071" lon="56.244665841">
  <ele>629.799988</ele>
  <time>2012-07-08T09:11:49Z</time>
</trkpt>
<trkpt lat="57.886944953" lon="56.244787797">
  <ele>632.200012</ele>
  <time>2012-07-08T09:11:57Z</time>
</trkpt>
<trkpt lat="57.886901116" lon="56.244575316">
  <ele>635.090027</ele>
  <time>2012-07-08T09:12:05Z</time>
</trkpt>
<trkpt lat="57.886881586" lon="56.244496945">
  <ele>636.049988</ele>
  <time>2012-07-08T09:12:07Z</time>
</trkpt>
<trkpt lat="57.886839341" lon="56.243841648">
  <ele>638.450012</ele>
  <time>2012-07-08T09:12:17Z</time>
</trkpt>
<trkpt lat="57.886845544" lon="56.243753806">
  <ele>637.489990</ele>
  <time>2012-07-08T09:12:18Z</time>
</trkpt>
<trkpt lat="57.886836827" lon="56.243654564">
  <ele>637.010010</ele>
  <time>2012-07-08T09:12:19Z</time>
</trkpt>
<trkpt lat="57.886809586" lon="56.243552556">
  <ele>637.010010</ele>
  <time>2012-07-08T09:12:20Z</time>
</trkpt>
<trkpt lat="57.886778321" lon="56.243451890">
  <ele>637.489990</ele>
  <time>2012-07-08T09:12:21Z</time>
</trkpt>
<trkpt lat="57.886752253" lon="56.243351139">
  <ele>637.489990</ele>
  <time>2012-07-08T09:12:22Z</time>
</trkpt>
<trkpt lat="57.886670278" lon="56.243031705">
  <ele>637.489990</ele>
  <time>2012-07-08T09:12:25Z</time>
</trkpt>
<trkpt lat="57.886468777" lon="56.242377246">
  <ele>639.890015</ele>
  <time>2012-07-08T09:12:31Z</time>
</trkpt>
<trkpt lat="57.886429634" lon="56.242278004">
  <ele>640.380005</ele>
  <time>2012-07-08T09:12:32Z</time>
</trkpt>
<trkpt lat="57.886191923" lon="56.241683057">
  <ele>640.380005</ele>
  <time>2012-07-08T09:12:37Z</time>
</trkpt>
<trkpt lat="57.885801997" lon="56.241181735">
  <ele>644.219971</ele>
  <time>2012-07-08T09:12:42Z</time>
</trkpt>
<trkpt lat="57.885301681" lon="56.241002195">
  <ele>653.349976</ele>
  <time>2012-07-08T09:12:46Z</time>
</trkpt>
<trkpt lat="57.885025162" lon="56.241036560">
  <ele>658.159973</ele>
  <time>2012-07-08T09:12:48Z</time>
</trkpt>
<trkpt lat="57.884215470" lon="56.241659839">
  <ele>670.659973</ele>
  <time>2012-07-08T09:12:54Z</time>
</trkpt>
<trkpt lat="57.883694787" lon="56.242925003">
  <ele>679.789978</ele>
  <time>2012-07-08T09:13:02Z</time>
</trkpt>
<trkpt lat="57.883685734" lon="56.243411992">
  <ele>684.599976</ele>
  <time>2012-07-08T09:13:09Z</time>
</trkpt>
<trkpt lat="57.883679364" lon="56.243404113">
  <ele>685.559998</ele>
  <time>2012-07-08T09:13:15Z</time>
</trkpt>
<trkpt lat="57.883699648" lon="56.243403023">
  <ele>685.559998</ele>
  <time>2012-07-08T09:13:18Z</time>
</trkpt>
<trkpt lat="57.883528154" lon="56.243069759">
  <ele>688.919983</ele>
  <time>2012-07-08T09:13:23Z</time>
</trkpt>
<trkpt lat="57.882897416" lon="56.242932547">
  <ele>694.690002</ele>
  <time>2012-07-08T09:13:28Z</time>
</trkpt>
<trkpt lat="57.882307330" lon="56.243335465">
  <ele>697.570007</ele>
  <time>2012-07-08T09:13:32Z</time>
</trkpt>
<trkpt lat="57.881766195" lon="56.244116239">
  <ele>699.979980</ele>
  <time>2012-07-08T09:13:37Z</time>
</trkpt>
<trkpt lat="57.881648429" lon="56.244739434">
  <ele>699.500000</ele>
  <time>2012-07-08T09:13:41Z</time>
</trkpt>
<trkpt lat="57.881639460" lon="56.244957279">
  <ele>700.460022</ele>
  <time>2012-07-08T09:13:46Z</time>
</trkpt>
<trkpt lat="57.881667707" lon="56.245037829">
  <ele>696.609985</ele>
  <time>2012-07-08T09:13:53Z</time>
</trkpt>
<trkpt lat="57.881473750" lon="56.244489318">
  <ele>696.130005</ele>
  <time>2012-07-08T09:13:59Z</time>
</trkpt>
<trkpt lat="57.880710075" lon="56.244109534">
  <ele>693.250000</ele>
  <time>2012-07-08T09:14:05Z</time>
</trkpt>
<trkpt lat="57.880395921" lon="56.244298713">
  <ele>692.770020</ele>
  <time>2012-07-08T09:14:07Z</time>
</trkpt>
<trkpt lat="57.880099704" lon="56.244541621">
  <ele>693.729980</ele>
  <time>2012-07-08T09:14:09Z</time>
</trkpt>
<trkpt lat="57.879451700" lon="56.245600004">
  <ele>696.609985</ele>
  <time>2012-07-08T09:14:15Z</time>
</trkpt>
<trkpt lat="57.879095804" lon="56.246335683">
  <ele>696.130005</ele>
  <time>2012-07-08T09:14:19Z</time>
</trkpt>
<trkpt lat="57.878979379" lon="56.246875394">
  <ele>692.289978</ele>
  <time>2012-07-08T09:14:23Z</time>
</trkpt>
<trkpt lat="57.878983822" lon="56.246964075">
  <ele>690.359985</ele>
  <time>2012-07-08T09:14:24Z</time>
</trkpt>
<trkpt lat="57.878989689" lon="56.247008499">
  <ele>688.919983</ele>
  <time>2012-07-08T09:14:25Z</time>
</trkpt>
<trkpt lat="57.878996059" lon="56.247024676">
  <ele>687.960022</ele>
  <time>2012-07-08T09:14:26Z</time>
</trkpt>
<trkpt lat="57.879017349" lon="56.247048480">
  <ele>686.039978</ele>
  <time>2012-07-08T09:14:28Z</time>
</trkpt>
<trkpt lat="57.879048782" lon="56.247073794">
  <ele>685.559998</ele>
  <time>2012-07-08T09:14:30Z</time>
</trkpt>
<trkpt lat="57.879104773" lon="56.247360203">
  <ele>683.630005</ele>
  <time>2012-07-08T09:14:37Z</time>
</trkpt>
<trkpt lat="57.879097648" lon="56.247500852">
  <ele>683.150024</ele>
  <time>2012-07-08T09:14:39Z</time>
</trkpt>
<trkpt lat="57.879092535" lon="56.247588359">
  <ele>681.710022</ele>
  <time>2012-07-08T09:14:40Z</time>
</trkpt>
<trkpt lat="57.879099743" lon="56.247683829">
  <ele>680.270020</ele>
  <time>2012-07-08T09:14:41Z</time>
</trkpt>
<trkpt lat="57.879115166" lon="56.247795811">
  <ele>678.830017</ele>
  <time>2012-07-08T09:14:42Z</time>
</trkpt>
<trkpt lat="57.879122291" lon="56.247927574">
  <ele>677.869995</ele>
  <time>2012-07-08T09:14:43Z</time>
</trkpt>
<trkpt lat="57.879112232" lon="56.248081466">
  <ele>676.909973</ele>
  <time>2012-07-08T09:14:44Z</time>
</trkpt>
<trkpt lat="57.879085829" lon="56.248250278">
  <ele>675.940002</ele>
  <time>2012-07-08T09:14:45Z</time>
</trkpt>
<trkpt lat="57.878916012" lon="56.248955028">
  <ele>672.099976</ele>
  <time>2012-07-08T09:14:49Z</time>
</trkpt>
<trkpt lat="57.878841916" lon="56.249146722">
  <ele>670.659973</ele>
  <time>2012-07-08T09:14:50Z</time>
</trkpt>
<trkpt lat="57.878748793" lon="56.249331292">
  <ele>669.219971</ele>
  <time>2012-07-08T09:14:51Z</time>
</trkpt>
<trkpt lat="57.878646869" lon="56.249497840">
  <ele>667.770020</ele>
  <time>2012-07-08T09:14:52Z</time>
</trkpt>
<trkpt lat="57.878542431" lon="56.249652822">
  <ele>666.330017</ele>
  <time>2012-07-08T09:14:53Z</time>
</trkpt>
<trkpt lat="57.877538279" lon="56.250616740">
  <ele>647.590027</ele>
  <time>2012-07-08T09:15:01Z</time>
</trkpt>
<trkpt lat="57.877103258" lon="56.250901641">
  <ele>638.929993</ele>
  <time>2012-07-08T09:15:04Z</time>
</trkpt>
<trkpt lat="57.876380067" lon="56.250853445">
  <ele>627.400024</ele>
  <time>2012-07-08T09:15:09Z</time>
</trkpt>
<trkpt lat="57.875974216" lon="56.250472153">
  <ele>618.750000</ele>
  <time>2012-07-08T09:15:13Z</time>
</trkpt>
<trkpt lat="57.875734661" lon="56.250035707">
  <ele>613.940002</ele>
  <time>2012-07-08T09:15:17Z</time>
</trkpt>
<trkpt lat="57.875566017" lon="56.249762792">
  <ele>611.539978</ele>
  <time>2012-07-08T09:15:20Z</time>
</trkpt>
<trkpt lat="57.875438863" lon="56.249479316">
  <ele>609.130005</ele>
  <time>2012-07-08T09:15:24Z</time>
</trkpt>
<trkpt lat="57.875466943" lon="56.249828758">
  <ele>605.770020</ele>
  <time>2012-07-08T09:15:29Z</time>
</trkpt>
<trkpt lat="57.875396200" lon="56.250171494">
  <ele>604.330017</ele>
  <time>2012-07-08T09:15:31Z</time>
</trkpt>
<trkpt lat="57.875016415" lon="56.251099119">
  <ele>600.000000</ele>
  <time>2012-07-08T09:15:36Z</time>
</trkpt>
<trkpt lat="57.873677742" lon="56.252487078">
  <ele>578.369995</ele>
  <time>2012-07-08T09:15:47Z</time>
</trkpt>
<trkpt lat="57.872840390" lon="56.253512856">
  <ele>566.349976</ele>
  <time>2012-07-08T09:15:54Z</time>
</trkpt>
<trkpt lat="57.871976802" lon="56.254738793">
  <ele>547.609985</ele>
  <time>2012-07-08T09:16:02Z</time>
</trkpt>
<trkpt lat="57.871665414" lon="56.255426444">
  <ele>535.590027</ele>
  <time>2012-07-08T09:16:06Z</time>
</trkpt>
<trkpt lat="57.870793864" lon="56.256447528">
  <ele>517.330017</ele>
  <time>2012-07-08T09:16:14Z</time>
</trkpt>
<trkpt lat="57.869641017" lon="56.257099221">
  <ele>487.529999</ele>
  <time>2012-07-08T09:16:23Z</time>
</trkpt>
<trkpt lat="57.868916905" lon="56.257394180">
  <ele>480.320007</ele>
  <time>2012-07-08T09:16:28Z</time>
</trkpt>
<trkpt lat="57.868439136" lon="56.257693917">
  <ele>482.239990</ele>
  <time>2012-07-08T09:16:32Z</time>
</trkpt>
<trkpt lat="57.868075445" lon="56.258395733">
  <ele>482.239990</ele>
  <time>2012-07-08T09:16:36Z</time>
</trkpt>
<trkpt lat="57.867997745" lon="56.258794712">
  <ele>482.239990</ele>
  <time>2012-07-08T09:16:38Z</time>
</trkpt>
<trkpt lat="57.868054491" lon="56.259607757">
  <ele>475.510010</ele>
  <time>2012-07-08T09:16:44Z</time>
</trkpt>
<trkpt lat="57.868162952" lon="56.260174457">
  <ele>477.910004</ele>
  <time>2012-07-08T09:16:49Z</time>
</trkpt>
<trkpt lat="57.868265714" lon="56.260362882">
  <ele>482.720001</ele>
  <time>2012-07-08T09:16:52Z</time>
</trkpt>
<trkpt lat="57.868338972" lon="56.260696314">
  <ele>464.929993</ele>
  <time>2012-07-08T09:16:59Z</time>
</trkpt>
<trkpt lat="57.868333524" lon="56.260709390">
  <ele>460.609985</ele>
  <time>2012-07-08T09:17:00Z</time>
</trkpt>
<trkpt lat="57.868017862" lon="56.260314183">
  <ele>439.459991</ele>
  <time>2012-07-08T09:17:05Z</time>
</trkpt>
<trkpt lat="57.867287127" lon="56.260591121">
  <ele>423.119995</ele>
  <time>2012-07-08T09:17:10Z</time>
</trkpt>
<trkpt lat="57.867021505" lon="56.260892618">
  <ele>414.950012</ele>
  <time>2012-07-08T09:17:12Z</time>
</trkpt>
<trkpt lat="57.866761079" lon="56.261301488">
  <ele>406.769989</ele>
  <time>2012-07-08T09:17:14Z</time>
</trkpt>
<trkpt lat="57.865925152" lon="56.261829045">
  <ele>397.640015</ele>
  <time>2012-07-08T09:17:20Z</time>
</trkpt>
<trkpt lat="57.865699260" lon="56.261514472">
  <ele>397.160004</ele>
  <time>2012-07-08T09:17:24Z</time>
</trkpt>
<trkpt lat="57.865636982" lon="56.261417074">
  <ele>408.700012</ele>
  <time>2012-07-08T09:17:29Z</time>
</trkpt>
<trkpt lat="57.865560958" lon="56.261269720">
  <ele>407.739990</ele>
  <time>2012-07-08T09:17:34Z</time>
</trkpt>
<trkpt lat="57.865338921" lon="56.260927822">
  <ele>394.279999</ele>
  <time>2012-07-08T09:17:41Z</time>
</trkpt>
<trkpt lat="57.865267340" lon="56.260668319">
  <ele>388.029999</ele>
  <time>2012-07-08T09:17:45Z</time>
</trkpt>
<trkpt lat="57.864888562" lon="56.259973459">
  <ele>380.339996</ele>
  <time>2012-07-08T09:17:53Z</time>
</trkpt>
<trkpt lat="57.864796026" lon="56.259798612">
  <ele>378.420013</ele>
  <time>2012-07-08T09:17:55Z</time>
</trkpt>
<trkpt lat="57.864348683" lon="56.259257728">
  <ele>381.299988</ele>
  <time>2012-07-08T09:18:01Z</time>
</trkpt>
<trkpt lat="57.864030255" lon="56.259049857">
  <ele>383.220001</ele>
  <time>2012-07-08T09:18:04Z</time>
</trkpt>
<trkpt lat="57.863212600" lon="56.258643670">
  <ele>384.660004</ele>
  <time>2012-07-08T09:18:10Z</time>
</trkpt>
<trkpt lat="57.861945173" lon="56.258778703">
  <ele>390.910004</ele>
  <time>2012-07-08T09:18:18Z</time>
</trkpt>
<trkpt lat="57.861444438" lon="56.259289831">
  <ele>389.470001</ele>
  <time>2012-07-08T09:18:22Z</time>
</trkpt>
<trkpt lat="57.861275207" lon="56.259632735">
  <ele>389.470001</ele>
  <time>2012-07-08T09:18:24Z</time>
</trkpt>
<trkpt lat="57.861102624" lon="56.260237740">
  <ele>389.950012</ele>
  <time>2012-07-08T09:18:28Z</time>
</trkpt>
<trkpt lat="57.861070102" lon="56.260606712">
  <ele>390.429993</ele>
  <time>2012-07-08T09:18:31Z</time>
</trkpt>
<trkpt lat="57.861120394" lon="56.260897564">
  <ele>392.359985</ele>
  <time>2012-07-08T09:18:35Z</time>
</trkpt>
<trkpt lat="57.861159034" lon="56.260969061">
  <ele>395.720001</ele>
  <time>2012-07-08T09:18:37Z</time>
</trkpt>
<trkpt lat="57.861234890" lon="56.261190344">
  <ele>415.910004</ele>
  <time>2012-07-08T09:18:45Z</time>
</trkpt>
<trkpt lat="57.861273112" lon="56.260985574">
  <ele>412.540009</ele>
  <time>2012-07-08T09:18:53Z</time>
</trkpt>
<trkpt lat="57.861217205" lon="56.260624649">
  <ele>400.049988</ele>
  <time>2012-07-08T09:18:58Z</time>
</trkpt>
<trkpt lat="57.860714206" lon="56.260290965">
  <ele>386.589996</ele>
  <time>2012-07-08T09:19:03Z</time>
</trkpt>
<trkpt lat="57.860149601" lon="56.260601850">
  <ele>375.529999</ele>
  <time>2012-07-08T09:19:07Z</time>
</trkpt>
<trkpt lat="57.859146958" lon="56.261732569">
  <ele>370.730011</ele>
  <time>2012-07-08T09:19:15Z</time>
</trkpt>
<trkpt lat="57.858830625" lon="56.262211092">
  <ele>371.690002</ele>
  <time>2012-07-08T09:19:18Z</time>
</trkpt>
<trkpt lat="57.858593920" lon="56.262571765">
  <ele>372.170013</ele>
  <time>2012-07-08T09:19:20Z</time>
</trkpt>
<trkpt lat="57.858277084" lon="56.263382798">
  <ele>374.570007</ele>
  <time>2012-07-08T09:19:24Z</time>
</trkpt>
<trkpt lat="57.858033506" lon="56.264374629">
  <ele>367.839996</ele>
  <time>2012-07-08T09:19:32Z</time>
</trkpt>
<trkpt lat="57.858011210" lon="56.264524665">
  <ele>364.480011</ele>
  <time>2012-07-08T09:19:33Z</time>
</trkpt>
<trkpt lat="57.857823037" lon="56.265277695">
  <ele>347.649994</ele>
  <time>2012-07-08T09:19:39Z</time>
</trkpt>
<trkpt lat="57.857727399" lon="56.265647169">
  <ele>336.600006</ele>
  <time>2012-07-08T09:19:43Z</time>
</trkpt>
<trkpt lat="57.857462363" lon="56.266322499">
  <ele>326.989990</ele>
  <time>2012-07-08T09:19:48Z</time>
</trkpt>
<trkpt lat="57.857187772" lon="56.266729357">
  <ele>320.739990</ele>
  <time>2012-07-08T09:19:51Z</time>
</trkpt>
<trkpt lat="57.856358802" lon="56.267796038">
  <ele>311.600006</ele>
  <time>2012-07-08T09:19:59Z</time>
</trkpt>
<trkpt lat="57.855397230" lon="56.268870681">
  <ele>304.390015</ele>
  <time>2012-07-08T09:20:07Z</time>
</trkpt>
<trkpt lat="57.854669094" lon="56.269205371">
  <ele>306.320007</ele>
  <time>2012-07-08T09:20:12Z</time>
</trkpt>
<trkpt lat="57.853791341" lon="56.269185254">
  <ele>305.359985</ele>
  <time>2012-07-08T09:20:18Z</time>
</trkpt>
<trkpt lat="57.853059936" lon="56.269609211">
  <ele>309.200012</ele>
  <time>2012-07-08T09:20:24Z</time>
</trkpt>
<trkpt lat="57.852910655" lon="56.270012967">
  <ele>304.880005</ele>
  <time>2012-07-08T09:20:29Z</time>
</trkpt>
<trkpt lat="57.852917109" lon="56.269920934">
  <ele>303.910004</ele>
  <time>2012-07-08T09:20:31Z</time>
</trkpt>
<trkpt lat="57.852913002" lon="56.269701663">
  <ele>300.549988</ele>
  <time>2012-07-08T09:20:36Z</time>
</trkpt>
<trkpt lat="57.852932448" lon="56.269650701">
  <ele>302.950012</ele>
  <time>2012-07-08T09:20:41Z</time>
</trkpt>
<trkpt lat="57.852957929" lon="56.269802162">
  <ele>300.549988</ele>
  <time>2012-07-08T09:20:45Z</time>
</trkpt>
<trkpt lat="57.852756679" lon="56.269273767">
  <ele>294.299988</ele>
  <time>2012-07-08T09:20:51Z</time>
</trkpt>
<trkpt lat="57.852077158" lon="56.269094311">
  <ele>285.649994</ele>
  <time>2012-07-08T09:20:56Z</time>
</trkpt>
<trkpt lat="57.851926368" lon="56.269172933">
  <ele>283.250000</ele>
  <time>2012-07-08T09:20:57Z</time>
</trkpt>
<trkpt lat="57.850842336" lon="56.270316225">
  <ele>274.589996</ele>
  <time>2012-07-08T09:21:06Z</time>
</trkpt>
<trkpt lat="57.850686181" lon="56.270506494">
  <ele>274.589996</ele>
  <time>2012-07-08T09:21:08Z</time>
</trkpt>
<trkpt lat="57.850140938" lon="56.271447865">
  <ele>270.269989</ele>
  <time>2012-07-08T09:21:16Z</time>
</trkpt>
<trkpt lat="57.849938599" lon="56.272118585">
  <ele>269.790009</ele>
  <time>2012-07-08T09:21:20Z</time>
</trkpt>
<trkpt lat="57.849503495" lon="56.273360783">
  <ele>264.500000</ele>
  <time>2012-07-08T09:21:29Z</time>
</trkpt>
<trkpt lat="57.849284308" lon="56.274330234">
  <ele>254.889999</ele>
  <time>2012-07-08T09:21:37Z</time>
</trkpt>
<trkpt lat="57.849254301" lon="56.274579009">
  <ele>250.080002</ele>
  <time>2012-07-08T09:21:39Z</time>
</trkpt>
<trkpt lat="57.849014578" lon="56.275692629">
  <ele>233.259995</ele>
  <time>2012-07-08T09:21:47Z</time>
</trkpt>
<trkpt lat="57.848900249" lon="56.276530484">
  <ele>224.119995</ele>
  <time>2012-07-08T09:21:54Z</time>
</trkpt>
<trkpt lat="57.848891867" lon="56.276777582">
  <ele>224.119995</ele>
  <time>2012-07-08T09:21:57Z</time>
</trkpt>
<trkpt lat="57.848914079" lon="56.277351575">
  <ele>225.570007</ele>
  <time>2012-07-08T09:22:04Z</time>
</trkpt>
<trkpt lat="57.848855909" lon="56.277703280">
  <ele>228.449997</ele>
  <time>2012-07-08T09:22:07Z</time>
</trkpt>
<trkpt lat="57.848841576" lon="56.278032269">
  <ele>227.970001</ele>
  <time>2012-07-08T09:22:10Z</time>
</trkpt>
<trkpt lat="57.848891951" lon="56.278414484">
  <ele>223.639999</ele>
  <time>2012-07-08T09:22:15Z</time>
</trkpt>
<trkpt lat="57.848877534" lon="56.278863000">
  <ele>216.910004</ele>
  <time>2012-07-08T09:22:20Z</time>
</trkpt>
<trkpt lat="57.848695731" lon="56.279347474">
  <ele>208.740005</ele>
  <time>2012-07-08T09:22:24Z</time>
</trkpt>
<trkpt lat="57.848622054" lon="56.279595830">
  <ele>202.490005</ele>
  <time>2012-07-08T09:22:26Z</time>
</trkpt>
<trkpt lat="57.848538486" lon="56.280359840">
  <ele>185.190002</ele>
  <time>2012-07-08T09:22:32Z</time>
</trkpt>
<trkpt lat="57.848491212" lon="56.280959901">
  <ele>179.419998</ele>
  <time>2012-07-08T09:22:40Z</time>
</trkpt>
<trkpt lat="57.848417116" lon="56.281480920">
  <ele>167.410004</ele>
  <time>2012-07-08T09:22:47Z</time>
</trkpt>
<trkpt lat="57.848099358" lon="56.282076454">
  <ele>161.160004</ele>
  <time>2012-07-08T09:22:52Z</time>
</trkpt>
<trkpt lat="57.848080667" lon="56.282171169">
  <ele>159.240005</ele>
  <time>2012-07-08T09:22:53Z</time>
</trkpt>
<trkpt lat="57.848008918" lon="56.282664109">
  <ele>146.259995</ele>
  <time>2012-07-08T09:23:01Z</time>
</trkpt>
</trkseg>
</trk>
</gpx>
